createdAt,value
2018-04-01T00:00:16.493Z,1005.87
2018-04-01T00:01:16.495Z,1005.92
2018-04-01T00:02:16.507Z,1006
2018-04-01T00:03:16.540Z,1006.01
2018-04-01T00:04:16.503Z,1006.01
2018-04-01T00:05:16.486Z,1006.02
2018-04-01T00:06:16.490Z,1005.93
2018-04-01T00:07:16.509Z,1005.91
2018-04-01T00:08:16.494Z,1005.99
2018-04-01T00:09:16.488Z,1006.03
2018-04-01T00:10:16.492Z,1006.07
2018-04-01T00:11:16.489Z,1006.14
2018-04-01T00:12:16.522Z,1006.05
2018-04-01T00:13:16.494Z,1006.13
2018-04-01T00:14:16.488Z,1006.11
2018-04-01T00:15:16.548Z,1006.12
2018-04-01T00:16:16.499Z,1006.18
2018-04-01T00:17:16.522Z,1006.2
2018-04-01T00:18:16.493Z,1006.21
2018-04-01T00:19:16.574Z,1006.25
2018-04-01T00:20:16.496Z,1006.33
2018-04-01T00:21:16.500Z,1006.33
2018-04-01T00:22:16.527Z,1006.37
2018-04-01T00:23:16.504Z,1006.36
2018-04-01T00:24:16.523Z,1006.39
2018-04-01T00:25:16.496Z,1006.38
2018-04-01T00:26:16.516Z,1006.38
2018-04-01T00:27:16.500Z,1006.41
2018-04-01T00:28:16.500Z,1006.38
2018-04-01T00:29:16.525Z,1006.38
2018-04-01T00:30:16.493Z,1006.36
2018-04-01T00:31:16.499Z,1006.37
2018-04-01T00:32:16.513Z,1006.41
2018-04-01T00:33:16.499Z,1006.39
2018-04-01T00:34:16.580Z,1006.44
2018-04-01T00:35:16.526Z,1006.43
2018-04-01T00:36:16.562Z,1006.48
2018-04-01T00:37:16.506Z,1006.47
2018-04-01T00:38:16.505Z,1006.46
2018-04-01T00:39:16.503Z,1006.44
2018-04-01T00:40:16.526Z,1006.39
2018-04-01T00:41:16.722Z,1006.44
2018-04-01T00:42:16.499Z,1006.44
2018-04-01T00:43:16.549Z,1006.43
2018-04-01T00:44:16.505Z,1006.45
2018-04-01T00:45:16.500Z,1006.55
2018-04-01T00:46:16.523Z,1006.52
2018-04-01T00:47:16.529Z,1006.54
2018-04-01T00:48:16.514Z,1006.53
2018-04-01T00:49:16.509Z,1006.53
2018-04-01T00:50:16.510Z,1006.53
2018-04-01T00:51:16.504Z,1006.53
2018-04-01T00:52:16.540Z,1006.56
2018-04-01T00:53:16.516Z,1006.58
2018-04-01T00:54:16.515Z,1006.54
2018-04-01T00:55:16.508Z,1006.59
2018-04-01T00:56:16.515Z,1006.59
2018-04-01T00:57:16.510Z,1006.58
2018-04-01T00:58:16.503Z,1006.56
2018-04-01T00:59:16.506Z,1006.56
2018-04-01T01:00:16.517Z,1006.62
2018-04-01T01:01:16.520Z,1006.63
2018-04-01T01:02:16.511Z,1006.6
2018-04-01T01:03:16.976Z,1006.6
2018-04-01T01:04:16.521Z,1006.62
2018-04-01T01:05:16.591Z,1006.67
2018-04-01T01:06:16.533Z,1006.63
2018-04-01T01:07:16.529Z,1006.64
2018-04-01T01:08:16.537Z,1006.65
2018-04-01T01:09:16.521Z,1006.67
2018-04-01T01:10:16.545Z,1006.64
2018-04-01T01:11:16.534Z,1006.67
2018-04-01T01:12:16.510Z,1006.69
2018-04-01T01:13:16.530Z,1006.7
2018-04-01T01:14:16.511Z,1006.72
2018-04-01T01:15:16.518Z,1006.72
2018-04-01T01:16:16.515Z,1006.7
2018-04-01T01:17:16.527Z,1006.75
2018-04-01T01:18:16.546Z,1006.73
2018-04-01T01:19:16.522Z,1006.7
2018-04-01T01:20:16.538Z,1006.75
2018-04-01T01:21:16.519Z,1006.77
2018-04-01T01:22:16.528Z,1006.74
2018-04-01T01:23:16.514Z,1006.8
2018-04-01T01:24:16.520Z,1006.77
2018-04-01T01:25:16.537Z,1006.79
2018-04-01T01:26:16.544Z,1006.82
2018-04-01T01:27:16.525Z,1006.77
2018-04-01T01:28:16.519Z,1006.78
2018-04-01T01:29:16.513Z,1006.8
2018-04-01T01:30:16.515Z,1006.83
2018-04-01T01:31:16.519Z,1006.88
2018-04-01T01:32:16.566Z,1006.9
2018-04-01T01:33:16.569Z,1006.9
2018-04-01T01:34:16.520Z,1006.97
2018-04-01T01:35:16.534Z,1006.96
2018-04-01T01:36:16.650Z,1006.96
2018-04-01T01:37:16.547Z,1007.03
2018-04-01T01:38:16.527Z,1007.05
2018-04-01T01:39:16.580Z,1007.07
2018-04-01T01:40:16.529Z,1007.07
2018-04-01T01:41:16.528Z,1007.06
2018-04-01T01:42:16.543Z,1007.12
2018-04-01T01:43:16.531Z,1007.14
2018-04-01T01:44:16.527Z,1007.1
2018-04-01T01:45:16.525Z,1007.14
2018-04-01T01:46:16.529Z,1007.12
2018-04-01T01:47:16.527Z,1007.12
2018-04-01T01:48:16.566Z,1007.13
2018-04-01T01:49:16.541Z,1007.13
2018-04-01T01:50:16.553Z,1007.15
2018-04-01T01:51:16.534Z,1007.15
2018-04-01T01:52:16.535Z,1007.19
2018-04-01T01:53:16.528Z,1007.17
2018-04-01T01:54:16.534Z,1007.17
2018-04-01T01:55:16.527Z,1007.16
2018-04-01T01:56:16.534Z,1007.18
2018-04-01T01:57:16.536Z,1007.15
2018-04-01T01:58:16.533Z,1007.14
2018-04-01T01:59:16.528Z,1007.21
2018-04-01T02:00:16.556Z,1007.21
2018-04-01T02:01:16.526Z,1007.16
2018-04-01T02:02:16.525Z,1007.17
2018-04-01T02:03:16.531Z,1007.21
2018-04-01T02:04:16.537Z,1007.19
2018-04-01T02:05:16.916Z,1007.24
2018-04-01T02:06:16.532Z,1007.19
2018-04-01T02:07:16.662Z,1007.26
2018-04-01T02:08:16.528Z,1007.28
2018-04-01T02:09:16.534Z,1007.26
2018-04-01T02:10:16.560Z,1007.24
2018-04-01T02:11:16.545Z,1007.24
2018-04-01T02:12:16.549Z,1007.3
2018-04-01T02:13:16.535Z,1007.32
2018-04-01T02:14:16.537Z,1007.3
2018-04-01T02:15:16.533Z,1007.34
2018-04-01T02:16:16.538Z,1007.34
2018-04-01T02:17:16.546Z,1007.27
2018-04-01T02:18:16.535Z,1007.26
2018-04-01T02:19:16.538Z,1007.22
2018-04-01T02:20:16.542Z,1007.29
2018-04-01T02:21:16.559Z,1007.26
2018-04-01T02:22:16.539Z,1007.24
2018-04-01T02:23:16.549Z,1007.32
2018-04-01T02:24:16.549Z,1007.3
2018-04-01T02:25:16.541Z,1007.35
2018-04-01T02:26:16.676Z,1007.33
2018-04-01T02:27:16.542Z,1007.33
2018-04-01T02:28:16.548Z,1007.3
2018-04-01T02:29:16.545Z,1007.3
2018-04-01T02:30:16.543Z,1007.29
2018-04-01T02:31:16.607Z,1007.31
2018-04-01T02:32:16.545Z,1007.29
2018-04-01T02:33:16.540Z,1007.32
2018-04-01T02:34:16.547Z,1007.31
2018-04-01T02:35:16.552Z,1007.29
2018-04-01T02:36:16.550Z,1007.28
2018-04-01T02:37:16.551Z,1007.33
2018-04-01T02:38:16.645Z,1007.32
2018-04-01T02:39:16.561Z,1007.33
2018-04-01T02:40:16.545Z,1007.34
2018-04-01T02:41:16.663Z,1007.42
2018-04-01T02:42:16.660Z,1007.44
2018-04-01T02:43:16.551Z,1007.44
2018-04-01T02:44:16.559Z,1007.47
2018-04-01T02:45:16.554Z,1007.47
2018-04-01T02:46:16.549Z,1007.47
2018-04-01T02:47:16.583Z,1007.43
2018-04-01T02:48:16.555Z,1007.48
2018-04-01T02:49:16.558Z,1007.49
2018-04-01T02:50:16.555Z,1007.47
2018-04-01T02:51:16.552Z,1007.48
2018-04-01T02:52:16.574Z,1007.5
2018-04-01T02:53:16.557Z,1007.52
2018-04-01T02:54:16.744Z,1007.51
2018-04-01T02:55:16.572Z,1007.5
2018-04-01T02:56:16.547Z,1007.49
2018-04-01T02:57:16.556Z,1007.52
2018-04-01T02:58:16.558Z,1007.55
2018-04-01T02:59:16.588Z,1007.57
2018-04-01T03:00:16.592Z,1007.55
2018-04-01T03:01:16.558Z,1007.59
2018-04-01T03:02:16.567Z,1007.56
2018-04-01T03:03:16.551Z,1007.6
2018-04-01T03:04:16.553Z,1007.61
2018-04-01T03:05:16.580Z,1007.58
2018-04-01T03:06:16.594Z,1007.6
2018-04-01T03:07:16.612Z,1007.6
2018-04-01T03:08:16.558Z,1007.66
2018-04-01T03:09:16.613Z,1007.71
2018-04-01T03:10:16.579Z,1007.7
2018-04-01T03:11:16.556Z,1007.66
2018-04-01T03:12:16.556Z,1007.7
2018-04-01T03:13:16.587Z,1007.73
2018-04-01T03:14:16.557Z,1007.72
2018-04-01T03:15:16.564Z,1007.74
2018-04-01T03:16:16.559Z,1007.74
2018-04-01T03:17:16.556Z,1007.76
2018-04-01T03:18:16.590Z,1007.79
2018-04-01T03:19:16.581Z,1007.81
2018-04-01T03:20:16.561Z,1007.82
2018-04-01T03:21:16.562Z,1007.82
2018-04-01T03:22:16.570Z,1007.79
2018-04-01T03:23:16.606Z,1007.83
2018-04-01T03:24:16.570Z,1007.84
2018-04-01T03:25:16.568Z,1007.81
2018-04-01T03:26:16.576Z,1007.83
2018-04-01T03:27:16.570Z,1007.84
2018-04-01T03:28:16.595Z,1007.8
2018-04-01T03:29:16.565Z,1007.8
2018-04-01T03:30:16.564Z,1007.8
2018-04-01T03:31:16.812Z,1007.84
2018-04-01T03:32:16.567Z,1007.84
2018-04-01T03:33:16.584Z,1007.86
2018-04-01T03:34:16.571Z,1007.82
2018-04-01T03:35:16.563Z,1007.88
2018-04-01T03:36:16.594Z,1007.88
2018-04-01T03:37:16.570Z,1007.89
2018-04-01T03:38:16.568Z,1007.85
2018-04-01T03:39:16.565Z,1007.91
2018-04-01T03:40:16.649Z,1007.88
2018-04-01T03:41:16.591Z,1007.93
2018-04-01T03:42:16.572Z,1007.94
2018-04-01T03:43:16.599Z,1007.98
2018-04-01T03:44:16.575Z,1007.95
2018-04-01T03:45:16.575Z,1007.95
2018-04-01T03:46:16.598Z,1007.97
2018-04-01T03:47:16.586Z,1007.95
2018-04-01T03:48:16.602Z,1007.94
2018-04-01T03:49:16.572Z,1007.98
2018-04-01T03:50:16.576Z,1007.99
2018-04-01T03:51:16.567Z,1008.02
2018-04-01T03:52:16.573Z,1008.09
2018-04-01T03:53:16.596Z,1008.07
2018-04-01T03:54:16.614Z,1008.09
2018-04-01T03:55:16.574Z,1008.04
2018-04-01T03:56:16.576Z,1008.06
2018-04-01T03:57:16.579Z,1008.05
2018-04-01T03:58:16.574Z,1008.06
2018-04-01T03:59:16.615Z,1008.06
2018-04-01T04:00:16.583Z,1008.1
2018-04-01T04:01:16.588Z,1008.12
2018-04-01T04:02:16.573Z,1008.11
2018-04-01T04:03:16.573Z,1008.11
2018-04-01T04:04:16.580Z,1008.11
2018-04-01T04:05:16.578Z,1008.08
2018-04-01T04:06:16.586Z,1008.1
2018-04-01T04:07:16.575Z,1008.15
2018-04-01T04:08:17.129Z,1008.08
2018-04-01T04:09:16.585Z,1008.07
2018-04-01T04:10:16.585Z,1008.13
2018-04-01T04:11:16.635Z,1008.16
2018-04-01T04:12:16.611Z,1008.11
2018-04-01T04:13:16.588Z,1008.18
2018-04-01T04:14:16.578Z,1008.19
2018-04-01T04:15:16.604Z,1008.18
2018-04-01T04:16:16.582Z,1008.21
2018-04-01T04:17:16.635Z,1008.18
2018-04-01T04:18:16.583Z,1008.14
2018-04-01T04:19:16.580Z,1008.18
2018-04-01T04:20:16.591Z,1008.2
2018-04-01T04:21:16.575Z,1008.21
2018-04-01T04:22:16.609Z,1008.21
2018-04-01T04:23:16.607Z,1008.22
2018-04-01T04:24:16.582Z,1008.29
2018-04-01T04:25:16.594Z,1008.27
2018-04-01T04:26:16.581Z,1008.29
2018-04-01T04:27:16.604Z,1008.26
2018-04-01T04:28:16.579Z,1008.31
2018-04-01T04:29:16.586Z,1008.33
2018-04-01T04:30:16.589Z,1008.4
2018-04-01T04:31:16.586Z,1008.39
2018-04-01T04:32:16.609Z,1008.37
2018-04-01T04:33:16.589Z,1008.38
2018-04-01T04:34:16.589Z,1008.42
2018-04-01T04:35:16.577Z,1008.39
2018-04-01T04:36:16.585Z,1008.41
2018-04-01T04:37:16.610Z,1008.39
2018-04-01T04:38:16.581Z,1008.41
2018-04-01T04:39:16.588Z,1008.41
2018-04-01T04:40:16.598Z,1008.42
2018-04-01T04:41:16.643Z,1008.48
2018-04-01T04:42:16.717Z,1008.48
2018-04-01T04:43:16.607Z,1008.49
2018-04-01T04:44:16.586Z,1008.56
2018-04-01T04:45:16.591Z,1008.62
2018-04-01T04:46:16.604Z,1008.62
2018-04-01T04:47:16.903Z,1008.64
2018-04-01T04:48:16.590Z,1008.58
2018-04-01T04:49:16.589Z,1008.62
2018-04-01T04:50:16.588Z,1008.66
2018-04-01T04:51:16.605Z,1008.65
2018-04-01T04:52:16.639Z,1008.69
2018-04-01T04:53:16.615Z,1008.7
2018-04-01T04:54:16.589Z,1008.73
2018-04-01T04:55:16.612Z,1008.75
2018-04-01T04:56:16.622Z,1008.78
2018-04-01T04:57:16.598Z,1008.78
2018-04-01T04:58:16.592Z,1008.8
2018-04-01T04:59:16.599Z,1008.81
2018-04-01T05:00:16.622Z,1008.81
2018-04-01T05:01:16.654Z,1008.87
2018-04-01T05:02:16.597Z,1008.88
2018-04-01T05:03:16.596Z,1008.91
2018-04-01T05:04:16.600Z,1008.88
2018-04-01T05:05:16.608Z,1008.88
2018-04-01T05:06:16.870Z,1008.84
2018-04-01T05:07:16.606Z,1008.87
2018-04-01T05:08:16.606Z,1008.88
2018-04-01T05:09:16.597Z,1008.84
2018-04-01T05:10:16.611Z,1008.94
2018-04-01T05:11:16.631Z,1008.89
2018-04-01T05:12:16.607Z,1008.93
2018-04-01T05:13:16.660Z,1008.93
2018-04-01T05:14:16.653Z,1008.94
2018-04-01T05:15:16.597Z,1008.97
2018-04-01T05:16:16.607Z,1008.98
2018-04-01T05:17:16.610Z,1008.99
2018-04-01T05:18:16.618Z,1009.05
2018-04-01T05:19:16.625Z,1009.04
2018-04-01T05:20:16.609Z,1009.02
2018-04-01T05:21:16.622Z,1009.03
2018-04-01T05:22:16.607Z,1009.08
2018-04-01T05:23:16.610Z,1009.01
2018-04-01T05:24:16.634Z,1009.08
2018-04-01T05:25:16.610Z,1009.07
2018-04-01T05:26:16.614Z,1009.1
2018-04-01T05:27:16.623Z,1009.13
2018-04-01T05:28:16.614Z,1009.1
2018-04-01T05:29:16.613Z,1009.1
2018-04-01T05:30:16.607Z,1009.16
2018-04-01T05:31:16.627Z,1009.19
2018-04-01T05:32:16.614Z,1009.19
2018-04-01T05:33:16.619Z,1009.21
2018-04-01T05:34:16.624Z,1009.28
2018-04-01T05:35:16.861Z,1009.31
2018-04-01T05:36:16.605Z,1009.3
2018-04-01T05:37:16.602Z,1009.36
2018-04-01T05:38:16.608Z,1009.41
2018-04-01T05:39:16.611Z,1009.36
2018-04-01T05:40:16.639Z,1009.38
2018-04-01T05:41:16.623Z,1009.44
2018-04-01T05:42:16.616Z,1009.46
2018-04-01T05:43:16.609Z,1009.45
2018-04-01T05:44:16.700Z,1009.46
2018-04-01T05:45:16.632Z,1009.41
2018-04-01T05:46:16.641Z,1009.41
2018-04-01T05:47:16.658Z,1009.47
2018-04-01T05:48:16.652Z,1009.44
2018-04-01T05:49:16.665Z,1009.5
2018-04-01T05:50:16.623Z,1009.5
2018-04-01T05:51:16.646Z,1009.52
2018-04-01T05:52:16.632Z,1009.5
2018-04-01T05:53:16.614Z,1009.51
2018-04-01T05:54:16.616Z,1009.46
2018-04-01T05:55:16.622Z,1009.47
2018-04-01T05:56:16.657Z,1009.51
2018-04-01T05:57:16.644Z,1009.48
2018-04-01T05:58:16.625Z,1009.45
2018-04-01T05:59:16.618Z,1009.52
2018-04-01T06:00:16.617Z,1009.49
2018-04-01T06:01:16.617Z,1009.49
2018-04-01T06:02:16.641Z,1009.48
2018-04-01T06:03:16.653Z,1009.5
2018-04-01T06:04:16.622Z,1009.52
2018-04-01T06:05:16.616Z,1009.48
2018-04-01T06:06:16.634Z,1009.56
2018-04-01T06:07:16.630Z,1009.57
2018-04-01T06:08:16.988Z,1009.58
2018-04-01T06:09:16.620Z,1009.61
2018-04-01T06:10:16.620Z,1009.59
2018-04-01T06:11:16.627Z,1009.59
2018-04-01T06:12:16.683Z,1009.55
2018-04-01T06:13:16.759Z,1009.54
2018-04-01T06:14:16.617Z,1009.64
2018-04-01T06:15:16.724Z,1009.67
2018-04-01T06:16:16.618Z,1009.65
2018-04-01T06:17:16.623Z,1009.72
2018-04-01T06:18:16.955Z,1009.74
2018-04-01T06:19:16.627Z,1009.73
2018-04-01T06:20:16.661Z,1009.74
2018-04-01T06:21:16.621Z,1009.71
2018-04-01T06:22:16.621Z,1009.68
2018-04-01T06:23:16.649Z,1009.73
2018-04-01T06:24:16.988Z,1009.75
2018-04-01T06:25:16.652Z,1009.73
2018-04-01T06:26:16.625Z,1009.76
2018-04-01T06:27:16.634Z,1009.75
2018-04-01T06:28:16.630Z,1009.77
2018-04-01T06:29:16.653Z,1009.77
2018-04-01T06:30:16.628Z,1009.81
2018-04-01T06:31:16.621Z,1009.82
2018-04-01T06:32:16.632Z,1009.81
2018-04-01T06:33:16.628Z,1009.82
2018-04-01T06:34:16.628Z,1009.85
2018-04-01T06:35:16.641Z,1009.87
2018-04-01T06:36:16.626Z,1009.89
2018-04-01T06:37:16.645Z,1009.88
2018-04-01T06:38:16.627Z,1009.9
2018-04-01T06:39:16.651Z,1009.86
2018-04-01T06:40:16.631Z,1009.92
2018-04-01T06:41:16.671Z,1009.9
2018-04-01T06:42:16.637Z,1009.92
2018-04-01T06:43:16.625Z,1009.91
2018-04-01T06:44:16.653Z,1009.94
2018-04-01T06:45:16.645Z,1009.93
2018-04-01T06:46:16.711Z,1009.95
2018-04-01T06:47:16.630Z,1009.96
2018-04-01T06:48:16.636Z,1009.99
2018-04-01T06:49:16.627Z,1010
2018-04-01T06:50:16.647Z,1009.98
2018-04-01T06:51:16.672Z,1009.97
2018-04-01T06:52:16.648Z,1010.03
2018-04-01T06:53:16.642Z,1010.02
2018-04-01T06:54:16.638Z,1010.02
2018-04-01T06:55:16.647Z,1010.04
2018-04-01T06:56:16.742Z,1010.03
2018-04-01T06:57:16.640Z,1010.09
2018-04-01T06:58:16.675Z,1010.14
2018-04-01T06:59:16.654Z,1010.14
2018-04-01T07:00:16.714Z,1010.19
2018-04-01T07:01:16.681Z,1010.18
2018-04-01T07:02:16.684Z,1010.15
2018-04-01T07:03:16.633Z,1010.12
2018-04-01T07:04:16.638Z,1010.15
2018-04-01T07:05:16.663Z,1010.15
2018-04-01T07:06:16.639Z,1010.13
2018-04-01T07:07:16.645Z,1010.16
2018-04-01T07:08:16.649Z,1010.18
2018-04-01T07:09:16.698Z,1010.19
2018-04-01T07:10:16.655Z,1010.24
2018-04-01T07:11:16.659Z,1010.21
2018-04-01T07:12:16.674Z,1010.23
2018-04-01T07:13:16.670Z,1010.2
2018-04-01T07:14:16.669Z,1010.28
2018-04-01T07:15:16.644Z,1010.31
2018-04-01T07:16:16.650Z,1010.27
2018-04-01T07:17:16.720Z,1010.32
2018-04-01T07:18:16.640Z,1010.33
2018-04-01T07:19:16.685Z,1010.32
2018-04-01T07:20:16.650Z,1010.38
2018-04-01T07:21:16.654Z,1010.38
2018-04-01T07:22:16.668Z,1010.48
2018-04-01T07:23:16.645Z,1010.37
2018-04-01T07:24:16.692Z,1010.41
2018-04-01T07:25:16.662Z,1010.43
2018-04-01T07:26:16.656Z,1010.46
2018-04-01T07:27:16.642Z,1010.49
2018-04-01T07:28:16.932Z,1010.42
2018-04-01T07:29:16.651Z,1010.53
2018-04-01T07:30:16.643Z,1010.54
2018-04-01T07:31:16.650Z,1010.51
2018-04-01T07:32:16.644Z,1010.54
2018-04-01T07:33:16.667Z,1010.58
2018-04-01T07:34:16.682Z,1010.58
2018-04-01T07:35:16.648Z,1010.59
2018-04-01T07:36:16.768Z,1010.59
2018-04-01T07:37:16.650Z,1010.58
2018-04-01T07:38:16.706Z,1010.57
2018-04-01T07:39:16.655Z,1010.59
2018-04-01T07:40:16.652Z,1010.54
2018-04-01T07:41:16.649Z,1010.61
2018-04-01T07:42:16.652Z,1010.61
2018-04-01T07:43:16.692Z,1010.64
2018-04-01T07:44:16.653Z,1010.65
2018-04-01T07:45:16.663Z,1010.66
2018-04-01T07:46:16.649Z,1010.63
2018-04-01T07:47:16.658Z,1010.67
2018-04-01T07:48:16.732Z,1010.68
2018-04-01T07:49:16.653Z,1010.68
2018-04-01T07:50:16.677Z,1010.7
2018-04-01T07:51:16.656Z,1010.68
2018-04-01T07:52:16.657Z,1010.7
2018-04-01T07:53:16.655Z,1010.74
2018-04-01T07:54:16.720Z,1010.72
2018-04-01T07:55:16.665Z,1010.76
2018-04-01T07:56:16.660Z,1010.72
2018-04-01T07:57:16.716Z,1010.78
2018-04-01T07:58:16.661Z,1010.78
2018-04-01T07:59:16.659Z,1010.76
2018-04-01T08:00:16.661Z,1010.77
2018-04-01T08:01:16.660Z,1010.72
2018-04-01T08:02:16.656Z,1010.84
2018-04-01T08:03:16.673Z,1010.86
2018-04-01T08:04:16.918Z,1010.83
2018-04-01T08:05:16.707Z,1010.82
2018-04-01T08:06:16.658Z,1010.82
2018-04-01T08:07:16.660Z,1010.84
2018-04-01T08:08:16.665Z,1010.84
2018-04-01T08:09:16.688Z,1010.86
2018-04-01T08:10:16.676Z,1010.87
2018-04-01T08:11:16.701Z,1010.85
2018-04-01T08:12:16.667Z,1010.92
2018-04-01T08:13:16.670Z,1010.95
2018-04-01T08:14:16.692Z,1010.95
2018-04-01T08:15:16.663Z,1010.91
2018-04-01T08:16:16.670Z,1010.96
2018-04-01T08:17:16.738Z,1010.88
2018-04-01T08:18:16.721Z,1010.91
2018-04-01T08:19:16.733Z,1010.93
2018-04-01T08:20:16.671Z,1010.92
2018-04-01T08:21:16.669Z,1010.85
2018-04-01T08:22:16.670Z,1010.86
2018-04-01T08:23:16.668Z,1010.85
2018-04-01T08:24:16.806Z,1010.89
2018-04-01T08:25:16.668Z,1010.9
2018-04-01T08:26:16.671Z,1010.97
2018-04-01T08:27:16.674Z,1010.94
2018-04-01T08:28:16.678Z,1010.91
2018-04-01T08:29:16.696Z,1010.94
2018-04-01T08:30:16.736Z,1010.95
2018-04-01T08:31:16.706Z,1010.91
2018-04-01T08:32:16.679Z,1010.91
2018-04-01T08:33:16.690Z,1010.93
2018-04-01T08:34:16.811Z,1010.93
2018-04-01T08:35:16.695Z,1010.92
2018-04-01T08:36:17.009Z,1010.98
2018-04-01T08:37:16.673Z,1010.96
2018-04-01T08:38:16.678Z,1010.95
2018-04-01T08:39:16.679Z,1011.04
2018-04-01T08:40:16.675Z,1011.01
2018-04-01T08:41:16.701Z,1011.05
2018-04-01T08:42:16.683Z,1011.03
2018-04-01T08:43:16.691Z,1010.99
2018-04-01T08:44:16.682Z,1011.02
2018-04-01T08:45:16.692Z,1011.11
2018-04-01T08:46:16.814Z,1011.01
2018-04-01T08:47:16.688Z,1010.96
2018-04-01T08:48:16.686Z,1011.05
2018-04-01T08:49:16.680Z,1011.02
2018-04-01T08:50:16.754Z,1011.12
2018-04-01T08:51:16.697Z,1011.09
2018-04-01T08:52:16.674Z,1011.14
2018-04-01T08:53:16.761Z,1011.17
2018-04-01T08:54:16.689Z,1011.17
2018-04-01T08:55:16.684Z,1011.15
2018-04-01T08:56:17.024Z,1011.21
2018-04-01T08:57:16.674Z,1011.18
2018-04-01T08:58:16.677Z,1011.2
2018-04-01T08:59:16.760Z,1011.2
2018-04-01T09:00:16.689Z,1011.21
2018-04-01T09:01:16.710Z,1011.27
2018-04-01T09:02:16.677Z,1011.24
2018-04-01T09:03:16.699Z,1011.19
2018-04-01T09:04:16.682Z,1011.23
2018-04-01T09:05:16.686Z,1011.33
2018-04-01T09:06:16.812Z,1011.29
2018-04-01T09:07:16.679Z,1011.22
2018-04-01T09:08:16.685Z,1011.25
2018-04-01T09:09:17.188Z,1011.22
2018-04-01T09:10:16.679Z,1011.21
2018-04-01T09:11:16.993Z,1011.24
2018-04-01T09:12:17.343Z,1011.19
2018-04-01T09:13:16.699Z,1011.18
2018-04-01T09:14:16.841Z,1011.15
2018-04-01T09:15:16.684Z,1011.16
2018-04-01T09:16:16.704Z,1011.21
2018-04-01T09:17:16.691Z,1011.18
2018-04-01T09:18:16.708Z,1011.24
2018-04-01T09:19:16.700Z,1011.18
2018-04-01T09:20:16.696Z,1011.23
2018-04-01T09:21:16.741Z,1011.23
2018-04-01T09:22:16.785Z,1011.21
2018-04-01T09:23:16.689Z,1011.22
2018-04-01T09:24:16.690Z,1011.22
2018-04-01T09:25:16.685Z,1011.22
2018-04-01T09:26:16.811Z,1011.25
2018-04-01T09:27:16.954Z,1011.21
2018-04-01T09:28:16.690Z,1011.24
2018-04-01T09:29:16.711Z,1011.27
2018-04-01T09:30:16.701Z,1011.26
2018-04-01T09:31:16.733Z,1011.3
2018-04-01T09:32:16.729Z,1011.28
2018-04-01T09:33:16.698Z,1011.25
2018-04-01T09:34:16.733Z,1011.25
2018-04-01T09:35:16.701Z,1011.31
2018-04-01T09:36:16.705Z,1011.31
2018-04-01T09:37:16.723Z,1011.34
2018-04-01T09:38:16.744Z,1011.35
2018-04-01T09:39:16.692Z,1011.39
2018-04-01T09:40:16.700Z,1011.38
2018-04-01T09:41:16.706Z,1011.37
2018-04-01T09:42:16.728Z,1011.37
2018-04-01T09:43:16.847Z,1011.38
2018-04-01T09:44:16.711Z,1011.39
2018-04-01T09:45:16.715Z,1011.43
2018-04-01T09:46:16.720Z,1011.44
2018-04-01T09:47:16.724Z,1011.49
2018-04-01T09:48:16.707Z,1011.45
2018-04-01T09:49:16.722Z,1011.43
2018-04-01T09:50:16.706Z,1011.44
2018-04-01T09:51:16.702Z,1011.42
2018-04-01T09:52:16.778Z,1011.46
2018-04-01T09:53:16.737Z,1011.49
2018-04-01T09:54:16.705Z,1011.46
2018-04-01T09:55:16.712Z,1011.46
2018-04-01T09:56:16.977Z,1011.44
2018-04-01T09:57:16.700Z,1011.49
2018-04-01T09:58:16.707Z,1011.44
2018-04-01T09:59:16.730Z,1011.47
2018-04-01T10:00:16.722Z,1011.5
2018-04-01T10:01:16.717Z,1011.56
2018-04-01T10:02:16.716Z,1011.5
2018-04-01T10:03:16.706Z,1011.52
2018-04-01T10:04:16.720Z,1011.48
2018-04-01T10:05:16.717Z,1011.56
2018-04-01T10:06:16.842Z,1011.59
2018-04-01T10:07:16.712Z,1011.56
2018-04-01T10:08:16.707Z,1011.62
2018-04-01T10:09:16.932Z,1011.59
2018-04-01T10:10:16.720Z,1011.61
2018-04-01T10:11:16.744Z,1011.61
2018-04-01T10:12:16.734Z,1011.57
2018-04-01T10:13:16.705Z,1011.6
2018-04-01T10:14:16.704Z,1011.6
2018-04-01T10:15:16.710Z,1011.58
2018-04-01T10:16:16.726Z,1011.59
2018-04-01T10:17:16.704Z,1011.6
2018-04-01T10:18:17.370Z,1011.62
2018-04-01T10:19:16.736Z,1011.67
2018-04-01T10:20:16.787Z,1011.66
2018-04-01T10:21:19.037Z,1011.65
2018-04-01T10:22:16.796Z,1011.68
2018-04-01T10:23:17.755Z,1011.68
2018-04-01T10:24:16.712Z,1011.71
2018-04-01T10:25:16.723Z,1011.71
2018-04-01T10:26:16.737Z,1011.68
2018-04-01T10:27:16.727Z,1011.71
2018-04-01T10:28:16.720Z,1011.7
2018-04-01T10:29:16.719Z,1011.66
2018-04-01T10:30:16.717Z,1011.72
2018-04-01T10:31:16.713Z,1011.69
2018-04-01T10:32:16.724Z,1011.75
2018-04-01T10:33:16.742Z,1011.77
2018-04-01T10:34:16.730Z,1011.79
2018-04-01T10:35:16.796Z,1011.89
2018-04-01T10:36:16.734Z,1011.84
2018-04-01T10:37:16.715Z,1011.84
2018-04-01T10:38:16.804Z,1011.86
2018-04-01T10:39:16.718Z,1011.89
2018-04-01T10:40:16.725Z,1011.82
2018-04-01T10:41:16.719Z,1011.85
2018-04-01T10:42:16.717Z,1011.84
2018-04-01T10:43:16.958Z,1011.9
2018-04-01T10:44:16.742Z,1011.92
2018-04-01T10:45:16.725Z,1011.92
2018-04-01T10:46:16.719Z,1011.87
2018-04-01T10:47:16.737Z,1011.91
2018-04-01T10:48:16.801Z,1011.86
2018-04-01T10:49:16.724Z,1011.87
2018-04-01T10:50:16.727Z,1011.86
2018-04-01T10:51:16.736Z,1011.91
2018-04-01T10:52:16.736Z,1011.92
2018-04-01T10:53:16.922Z,1011.9
2018-04-01T10:54:16.840Z,1011.84
2018-04-01T10:55:16.732Z,1011.83
2018-04-01T10:56:16.732Z,1011.81
2018-04-01T10:57:16.734Z,1011.86
2018-04-01T10:58:16.765Z,1011.89
2018-04-01T10:59:16.738Z,1011.83
2018-04-01T11:00:16.729Z,1011.89
2018-04-01T11:01:16.760Z,1011.96
2018-04-01T11:02:16.738Z,1011.88
2018-04-01T11:03:16.751Z,1011.92
2018-04-01T11:04:16.730Z,1011.89
2018-04-01T11:05:16.727Z,1011.95
2018-04-01T11:06:16.740Z,1011.92
2018-04-01T11:07:16.749Z,1011.92
2018-04-01T11:08:16.776Z,1011.96
2018-04-01T11:09:16.752Z,1012.08
2018-04-01T11:10:16.756Z,1012
2018-04-01T11:11:16.793Z,1011.97
2018-04-01T11:12:16.760Z,1011.94
2018-04-01T11:13:16.767Z,1011.98
2018-04-01T11:14:16.737Z,1012
2018-04-01T11:15:16.744Z,1011.96
2018-04-01T11:16:16.747Z,1011.94
2018-04-01T11:17:16.741Z,1011.95
2018-04-01T11:18:16.783Z,1011.94
2018-04-01T11:19:16.758Z,1011.99
2018-04-01T11:20:16.732Z,1011.95
2018-04-01T11:21:16.747Z,1011.87
2018-04-01T11:22:16.749Z,1011.97
2018-04-01T11:23:16.743Z,1011.92
2018-04-01T11:24:16.757Z,1011.93
2018-04-01T11:25:16.831Z,1011.98
2018-04-01T11:26:16.737Z,1012
2018-04-01T11:27:16.740Z,1011.94
2018-04-01T11:28:16.775Z,1011.99
2018-04-01T11:29:16.743Z,1011.92
2018-04-01T11:30:16.748Z,1011.93
2018-04-01T11:31:16.815Z,1011.88
2018-04-01T11:32:16.767Z,1011.85
2018-04-01T11:33:16.777Z,1011.97
2018-04-01T11:34:16.782Z,1012
2018-04-01T11:35:16.741Z,1012.07
2018-04-01T11:36:16.745Z,1011.96
2018-04-01T11:37:16.739Z,1012.13
2018-04-01T11:38:16.742Z,1012.08
2018-04-01T11:39:17.119Z,1012.07
2018-04-01T11:40:16.754Z,1012
2018-04-01T11:41:16.758Z,1012.09
2018-04-01T11:42:16.740Z,1012.05
2018-04-01T11:43:16.746Z,1012.08
2018-04-01T11:44:16.784Z,1012.12
2018-04-01T11:45:16.748Z,1012.1
2018-04-01T11:46:16.768Z,1012.05
2018-04-01T11:47:16.751Z,1012.05
2018-04-01T11:48:16.741Z,1012.1
2018-04-01T11:49:16.772Z,1012.21
2018-04-01T11:50:16.763Z,1012.28
2018-04-01T11:51:16.747Z,1012.19
2018-04-01T11:52:16.756Z,1012.17
2018-04-01T11:53:16.768Z,1012.19
2018-04-01T11:54:16.754Z,1012.15
2018-04-01T11:55:16.772Z,1012.23
2018-04-01T11:56:16.828Z,1012.39
2018-04-01T11:57:16.750Z,1012.34
2018-04-01T11:58:16.753Z,1012.47
2018-04-01T11:59:16.763Z,1012.43
2018-04-01T12:00:16.747Z,1012.43
2018-04-01T12:01:16.773Z,1012.46
2018-04-01T12:02:16.761Z,1012.39
2018-04-01T12:03:16.969Z,1012.39
2018-04-01T12:04:16.745Z,1012.39
2018-04-01T12:05:16.752Z,1012.41
2018-04-01T12:06:16.883Z,1012.33
2018-04-01T12:07:16.751Z,1012.32
2018-04-01T12:08:16.751Z,1012.29